DGAA/ACC METAR and TAF weather

Enter ICAO airport designator
Station Type Date Time Source
DGAA METAR 2022/01/29 10:00 UTC NOAA

DGAA 291000Z VRB03KT 3000 HZ NSC 30/22 Q1013 NOSIG


Station Type Date Time Source
DGAA Decoded METAR 2022/01/29 10:00 UTC NOAA

Accra, Ghana (DGAA) 05-36N 000-10W 69M
Jan 29, 2022 - 05:00 AM EST / 2022.01.29 1000 UTC
Wind: Variable at 3 MPH (3 KT):0
Visibility: 1 mile(s):0
Weather: haze
Temperature: 86 F (30 C)
Heat index: 91.8 F (33.2 C):1
Dew Point: 71 F (22 C)
Relative Humidity: 62%
Pressure (altimeter): 29.91 in. Hg (1013 hPa)
ob: DGAA 291000Z VRB03KT 3000 HZ NSC 30/22 Q1013 NOSIG
cycle: 10

Station Type Date Time Source
DGAA TAF 2022/01/29 06:24 UTC NOAA

TAF TAF DGAA 290500Z 2906/3012 33006KT CAVOK PROB40
TEMPO 2905/2908 2000 BR NSC
BECMG 2911/2913 16008KT 5000 HZ NSC
BECMG 3003/3006 33007KT

Example: see airport list